.
WxDataArchive / Data Records for 2015-05-10
2015-05-09 May 2015 2015-05-11

Data Records for Sunday, 10 May 2015

Time	Temp	Chill	HIndex	Humid	Dewpt	 Wind 	HiWind	WindDir	Rain 	Barom
-----	----	-----	------	-----	-----	------	------	-------	-----	-----
00:00	65.8	65.8	65.8	96	64.6	0	0	---	0.00	30.026 
00:05	66.0	66.0	66.0	96	64.8	0	0	---	0.01	30.026 
00:10	66.0	66.0	66.0	96	64.8	0	0	---	0.00	30.026 
00:15	66.1	66.1	66.1	96	64.9	0	0	---	0.00	30.013 
00:20	66.3	66.3	66.3	96	65.1	0	1	248	0.00	30.013 
00:25	66.3	66.3	66.3	96	65.1	0	0	---	0.01	30.013 
00:30	66.3	66.3	66.3	96	65.1	0	0	---	0.00	29.996 
00:35	66.3	66.3	66.3	96	65.1	0	1	248	0.00	29.996 
00:40	66.3	66.3	66.3	96	65.1	0	1	248	0.00	29.996 
00:45	66.3	66.3	66.3	96	65.1	0	2	248	0.00	29.984 
00:50	66.1	66.1	66.1	96	64.9	0	2	248	0.00	29.984 
00:55	66.1	66.1	66.1	96	64.9	0	0	---	0.00	29.984 
01:00	66.0	66.0	66.0	96	64.8	0	0	---	0.00	29.990 
01:05	66.0	66.0	66.0	96	64.8	0	0	---	0.00	29.990 
01:10	66.0	66.0	66.0	96	64.8	0	0	---	0.00	29.990 
01:15	65.8	65.8	65.8	96	64.6	0	0	---	0.00	29.989 
01:20	65.8	65.8	65.8	96	64.6	0	0	---	0.00	29.989 
01:25	65.8	65.8	65.8	96	64.6	0	0	---	0.00	29.989 
01:30	65.6	65.6	65.6	96	64.4	0	0	---	0.00	29.992 
01:35	65.6	65.6	65.6	96	64.4	0	0	---	0.00	29.992 
01:40	65.6	65.6	65.6	96	64.4	0	0	---	0.00	29.992 
01:45	65.6	65.6	65.6	96	64.4	0	0	---	0.00	29.996 
01:50	65.5	65.5	65.5	96	64.3	0	0	---	0.00	29.996 
01:55	65.5	65.5	65.5	96	64.3	0	0	---	0.00	29.996 
02:00	65.5	65.5	65.5	96	64.3	0	0	---	0.00	29.997 
02:05	65.3	65.3	65.3	96	64.1	0	0	---	0.00	29.997 
02:10	65.3	65.3	65.3	96	64.1	0	0	---	0.00	29.997 
02:15	65.3	65.3	65.3	96	64.1	0	0	---	0.00	29.993 
02:20	65.2	65.2	65.2	96	64.0	0	0	---	0.00	29.993 
02:25	65.3	65.3	65.3	96	64.1	0	0	---	0.00	29.993 
02:30	65.2	65.2	65.2	96	64.0	0	1	248	0.00	29.995 
02:35	65.0	65.0	65.0	96	63.8	0	0	---	0.00	29.995 
02:40	65.0	65.0	65.0	96	63.8	0	0	---	0.00	29.995 
02:45	64.8	64.8	64.8	96	63.6	0	0	---	0.00	29.995 
02:50	64.7	64.7	64.7	96	63.5	0	0	---	0.00	29.995 
02:55	64.5	64.5	64.5	96	63.3	0	0	---	0.00	29.995 
03:00	64.3	64.3	64.3	96	63.1	0	0	---	0.00	29.991 
03:05	64.2	64.2	64.2	96	63.0	0	0	---	0.00	29.991 
03:10	64.0	64.0	64.0	96	62.8	0	0	---	0.00	29.991 
03:15	63.9	63.9	63.9	96	62.7	0	0	---	0.00	29.983 
03:20	63.7	63.7	63.7	96	62.5	0	0	---	0.00	29.983 
03:25	63.7	63.7	63.7	96	62.5	0	0	---	0.00	29.983 
03:30	63.7	63.7	63.7	96	62.5	0	0	---	0.00	29.981 
03:35	63.7	63.7	63.7	96	62.5	0	0	---	0.00	29.981 
03:40	63.9	63.9	63.9	96	62.7	0	0	---	0.00	29.981 
03:45	63.9	63.9	63.9	96	62.7	0	0	---	0.00	29.980 
03:50	64.0	64.0	64.0	96	62.8	0	0	---	0.00	29.980 
03:55	64.0	64.0	64.0	96	62.8	0	0	---	0.00	29.980 
04:00	64.2	64.2	64.2	96	63.0	0	0	---	0.00	29.979 
04:05	64.0	64.0	64.0	96	62.8	0	0	---	0.00	29.979 
04:10	64.0	64.0	64.0	96	62.8	0	0	---	0.00	29.979 
04:15	64.0	64.0	64.0	96	62.8	0	0	---	0.00	29.982 
04:20	64.0	64.0	64.0	96	62.8	0	0	---	0.00	29.982 
04:25	64.2	64.2	64.2	96	63.0	0	0	---	0.00	29.982 
04:30	64.2	64.2	64.2	97	63.3	0	1	248	0.00	29.981 
04:35	64.2	64.2	64.2	97	63.3	0	1	248	0.00	29.981 
04:40	64.2	64.2	64.2	97	63.3	0	0	---	0.00	29.981 
04:45	64.2	64.2	64.2	97	63.3	0	0	---	0.00	29.980 
04:50	64.2	64.2	64.2	97	63.3	0	0	---	0.00	29.980 
04:55	64.2	64.2	64.2	97	63.3	0	0	---	0.00	29.980 
05:00	64.2	64.2	64.2	97	63.3	0	0	---	0.00	29.979 
05:05	64.0	64.0	64.0	97	63.1	0	0	---	0.00	29.979 
05:10	63.9	63.9	63.9	96	62.7	0	1	248	0.00	29.979 
05:15	63.9	63.9	63.9	96	62.7	0	0	---	0.00	29.982 
05:20	63.7	63.7	63.7	96	62.5	0	0	---	0.00	29.982 
05:25	63.5	63.5	63.5	96	62.3	0	0	---	0.00	29.982 
05:30	63.4	63.4	63.4	97	62.5	0	0	---	0.00	29.986 
05:35	63.4	63.4	63.4	97	62.5	0	0	---	0.00	29.986 
05:40	63.4	63.4	63.4	97	62.5	0	0	---	0.00	29.986 
05:45	63.4	63.4	63.4	97	62.5	0	1	248	0.00	29.986 
05:50	63.5	63.5	63.5	97	62.6	0	0	---	0.00	29.986 
05:55	63.5	63.5	63.5	97	62.6	0	0	---	0.00	29.986 
06:00	63.5	63.5	63.5	97	62.6	0	0	---	0.00	29.986 
06:05	63.5	63.5	63.5	97	62.6	0	0	---	0.00	29.986 
06:10	63.5	63.5	63.5	97	62.6	0	0	---	0.00	29.986 
06:15	63.5	63.5	63.5	97	62.6	0	0	---	0.00	29.992 
06:20	63.5	63.5	63.5	97	62.6	0	0	---	0.00	29.992 
06:25	63.5	63.5	63.5	97	62.6	0	0	---	0.00	29.992 
06:30	63.5	63.5	63.5	97	62.6	0	0	---	0.00	29.992 
06:35	63.5	63.5	63.5	97	62.6	0	0	---	0.00	29.992 
06:40	63.4	63.4	63.4	97	62.5	0	0	---	0.00	29.992 
06:45	63.5	63.5	63.5	97	62.6	0	1	248	0.00	30.002 
06:50	63.5	63.5	63.5	97	62.6	0	1	248	0.00	30.002 
06:55	63.5	63.5	63.5	97	62.6	0	1	248	0.00	30.002 
07:00	63.5	63.5	63.5	97	62.6	0	1	248	0.00	30.004 
07:05	63.7	63.7	63.7	97	62.8	0	1	248	0.00	30.004 
07:10	63.7	63.7	63.7	97	62.8	0	0	---	0.00	30.004 
07:15	63.7	63.7	63.7	97	62.8	0	1	248	0.00	30.010 
07:20	63.9	63.9	63.9	97	63.0	0	0	---	0.00	30.010 
07:25	64.0	64.0	64.0	97	63.1	0	1	248	0.00	30.010 
07:30	64.2	64.2	64.2	97	63.3	0	1	248	0.00	30.011 
07:35	64.3	64.3	64.3	97	63.4	0	1	248	0.00	30.011 
07:40	64.5	64.5	64.5	97	63.6	0	1	248	0.00	30.011 
07:45	64.5	64.5	64.5	97	63.6	0	1	248	0.00	30.009 
07:50	64.7	64.7	64.7	97	63.8	0	1	248	0.00	30.009 
07:55	65.2	65.2	65.2	97	64.3	0	1	248	0.00	30.009 
08:00	65.8	65.8	65.8	97	64.9	0	1	248	0.00	30.008 
08:05	66.4	66.4	66.4	97	65.5	0	1	248	0.00	30.008 
08:10	66.9	66.9	66.9	97	66.0	0	1	248	0.00	30.008 
08:15	67.1	67.1	67.1	97	66.2	0	1	248	0.00	30.014 
08:20	67.3	67.3	67.3	96	66.1	0	2	248	0.00	30.014 
08:25	67.8	67.8	67.8	96	66.6	0	1	248	0.00	30.014 
08:30	68.1	68.1	68.1	96	66.9	0	1	248	0.00	30.020 
08:35	67.8	67.8	67.8	95	66.3	0	4	248	0.00	30.020 
08:40	67.6	67.6	67.6	95	66.1	0	1	248	0.00	30.020 
08:45	68.3	68.3	68.3	95	66.8	0	2	248	0.00	30.020 
08:50	68.6	68.6	68.6	95	67.1	0	0	---	0.00	30.020 
08:55	68.6	68.6	68.6	94	66.8	0	1	248	0.00	30.020 
09:00	68.6	68.6	68.6	94	66.8	0	1	248	0.00	30.017 
09:05	68.6	68.6	68.6	94	66.8	0	1	248	0.00	30.017 
09:10	68.6	68.6	68.6	94	66.8	0	0	---	0.00	30.017 
09:15	68.8	68.8	68.8	93	66.7	0	1	248	0.00	30.011 
09:20	68.8	68.8	68.8	93	66.7	0	1	248	0.00	30.011 
09:25	68.8	68.8	68.8	92	66.4	0	0	---	0.00	30.011 
09:30	68.8	68.8	68.8	92	66.4	0	1	248	0.00	30.014 
09:35	69.4	69.4	69.4	92	67.0	0	1	248	0.00	30.014 
09:40	70.1	70.1	70.1	92	67.7	0	0	---	0.00	30.014 
09:45	70.8	70.8	70.8	90	67.7	0	2	248	0.00	30.006 
09:50	71.8	71.8	71.8	90	68.7	0	1	248	0.00	30.006 
09:55	72.3	72.3	72.3	86	67.9	0	2	202	0.00	30.006 
10:00	72.5	72.5	72.5	82	66.7	0	2	225	0.00	30.002 
10:05	72.5	72.5	72.5	81	66.3	0	2	225	0.00	30.002 
10:10	72.8	72.8	72.8	80	66.3	0	2	225	0.00	30.002 
10:15	73.2	73.2	73.2	79	66.3	0	3	90	0.00	30.002 
10:20	73.5	73.5	73.5	78	66.2	0	1	90	0.00	30.002 
10:25	73.7	73.7	73.7	77	66.0	0	1	90	0.00	30.002 
10:30	73.9	73.9	73.9	76	65.8	0	2	90	0.00	30.006 
10:35	73.9	73.9	73.9	75	65.5	0	2	90	0.00	30.006 
10:40	73.7	73.7	73.7	74	64.9	0	2	90	0.00	30.006 
10:45	73.7	73.7	73.7	74	64.9	0	3	270	0.00	30.009 
10:50	73.5	73.5	73.5	73	64.3	0	3	270	0.00	30.009 
10:55	73.3	73.3	73.3	73	64.1	0	3	270	0.00	30.009 
11:00	73.3	73.3	73.3	73	64.1	0	2	270	0.00	30.011 
11:05	73.5	73.5	73.5	74	64.7	0	2	270	0.00	30.011 
11:10	73.7	73.7	73.7	73	64.5	0	2	270	0.00	30.011 
11:15	73.9	73.9	73.9	73	64.7	0	2	270	0.00	30.013 
11:20	74.0	74.0	74.0	73	64.8	0	3	292	0.00	30.013 
11:25	74.0	74.0	74.0	71	64.0	1	3	270	0.00	30.013 
11:30	74.0	74.0	74.0	71	64.0	1	4	270	0.00	30.017 
11:35	74.0	74.0	74.0	72	64.4	0	3	270	0.00	30.017 
11:40	74.0	74.0	74.0	73	64.8	0	1	270	0.00	30.017 
11:45	73.9	73.9	73.9	73	64.7	0	1	270	0.00	30.011 
11:50	73.9	73.9	73.9	74	65.1	0	1	270	0.00	30.011 
11:55	74.0	74.0	74.0	75	65.6	0	1	270	0.00	30.011 
12:00	74.2	74.2	74.2	73	65.0	0	1	270	0.00	30.005 
12:05	74.6	74.6	74.6	74	65.7	0	2	270	0.00	30.005 
12:10	74.6	74.6	74.6	73	65.4	0	1	270	0.00	30.005 
12:15	74.6	74.6	74.6	73	65.4	0	3	270	0.00	30.006 
12:20	74.4	74.4	74.4	73	65.2	0	1	270	0.00	30.006 
12:25	74.2	74.2	74.2	73	65.0	0	2	270	0.00	30.006 
12:30	74.0	74.0	74.0	73	64.8	0	1	270	0.00	30.005 
12:35	73.7	73.7	73.7	73	64.5	0	1	270	0.00	30.005 
12:40	73.5	73.5	73.5	75	65.1	1	3	270	0.00	30.005 
12:45	72.1	72.1	72.1	78	64.8	1	4	338	0.04	30.019 
12:50	70.9	70.9	70.9	81	64.8	0	1	338	0.01	30.019 
12:55	70.3	70.3	70.3	84	65.2	0	4	292	0.01	30.019 
13:00	69.6	69.6	69.6	86	65.2	0	1	292	0.02	30.024 
13:05	69.1	69.1	69.1	87	65.1	0	1	292	0.02	30.024 
13:10	68.4	68.4	68.4	87	64.4	0	1	292	0.02	30.024 
13:15	67.9	67.9	67.9	88	64.2	0	1	292	0.01	30.018 
13:20	67.6	67.6	67.6	89	64.2	0	1	292	0.00	30.018 
13:25	67.6	67.6	67.6	89	64.2	0	0	---	0.00	30.018 
13:30	67.8	67.8	67.8	90	64.8	0	0	---	0.00	30.008 
13:35	67.8	67.8	67.8	90	64.8	0	1	292	0.00	30.008 
13:40	68.3	68.3	68.3	91	65.6	0	0	---	0.00	30.008 
13:45	68.6	68.6	68.6	91	65.9	0	0	---	0.00	30.005 
13:50	68.9	68.9	68.9	92	66.5	0	0	---	0.00	30.005 
13:55	69.1	69.1	69.1	92	66.7	0	0	---	0.00	30.005 
14:00	69.3	69.3	69.3	91	66.6	0	0	---	0.00	30.001 
14:05	69.6	69.6	69.6	92	67.2	0	1	292	0.00	30.001 
14:10	70.3	70.3	70.3	92	67.9	0	0	---	0.00	30.001 
14:15	70.6	70.6	70.6	91	67.8	0	1	292	0.00	29.990 
14:20	70.9	70.9	70.9	90	67.8	0	1	292	0.00	29.990 
14:25	71.5	71.5	71.5	90	68.4	0	1	292	0.00	29.990 
14:30	72.1	72.1	72.1	89	68.7	0	1	292	0.00	29.984 
14:35	72.7	72.7	72.7	86	68.3	0	2	292	0.00	29.984 
14:40	73.2	73.2	73.2	84	68.1	0	1	292	0.00	29.984 
14:45	73.9	73.9	73.9	81	67.7	0	5	292	0.00	29.979 
14:50	74.7	74.7	74.7	80	68.1	0	1	90	0.00	29.979 
14:55	74.9	74.9	74.9	77	67.2	0	1	90	0.00	29.979 
15:00	75.3	75.3	76.5	75	66.8	0	1	90	0.00	29.975 
15:05	75.4	75.4	77.0	71	65.3	1	3	90	0.00	29.975 
15:10	76.0	76.0	77.4	74	67.1	0	1	90	0.00	29.975 
15:15	76.3	76.3	77.9	72	66.6	0	1	90	0.00	29.969 
15:20	76.5	76.5	78.3	68	65.1	0	3	90	0.00	29.969 
15:25	76.8	76.8	78.5	70	66.3	0	1	90	0.00	29.969 
15:30	76.8	76.8	78.6	69	65.8	0	1	90	0.00	29.965 
15:35	77.0	77.0	78.8	69	66.0	0	0	---	0.00	29.965 
15:40	77.0	77.0	78.8	68	65.6	0	1	90	0.00	29.965 
15:45	77.2	77.2	79.0	69	66.2	0	1	90	0.00	29.962 
15:50	76.8	76.8	78.6	67	65.0	0	2	90	0.00	29.962 
15:55	76.8	76.8	78.6	68	65.4	0	1	90	0.00	29.962 
16:00	76.7	76.7	78.4	69	65.7	0	1	90	0.00	29.956 
16:05	76.7	76.7	78.4	70	66.2	0	1	90	0.00	29.956 
16:10	76.7	76.7	78.4	69	65.7	0	0	---	0.00	29.956 
16:15	76.7	76.7	78.4	69	65.7	0	1	90	0.00	29.954 
16:20	76.8	76.8	78.5	70	66.3	0	1	90	0.00	29.954 
16:25	76.8	76.8	78.5	70	66.3	0	0	---	0.00	29.954 
16:30	76.8	76.8	78.5	70	66.3	0	1	90	0.00	29.953 
16:35	76.8	76.8	78.5	71	66.7	0	1	90	0.00	29.953 
16:40	76.7	76.7	78.3	74	67.8	1	5	90	0.01	29.953 
16:45	76.5	76.5	78.0	76	68.4	0	1	90	0.00	29.950 
16:50	76.5	76.5	77.9	77	68.7	0	1	90	0.00	29.950 
16:55	76.7	76.7	78.3	75	68.2	0	3	90	0.00	29.950 
17:00	76.1	76.1	77.6	73	66.8	0	1	90	0.00	29.948 
17:05	75.8	75.8	77.1	75	67.3	0	1	90	0.00	29.948 
17:10	75.4	75.4	76.6	75	66.9	0	1	90	0.00	29.948 
17:15	75.3	75.3	76.4	76	67.2	0	0	---	0.00	29.953 
17:20	74.9	74.9	74.9	77	67.2	0	1	90	0.00	29.953 
17:25	74.6	74.6	74.6	78	67.3	1	3	90	0.00	29.953 
17:30	73.5	73.5	73.5	80	66.9	1	5	90	0.02	29.957 
17:35	72.3	72.3	72.3	82	66.5	1	3	270	0.01	29.957 
17:40	72.0	72.0	72.0	84	66.9	0	0	---	0.01	29.957 
17:45	72.0	72.0	72.0	86	67.6	0	0	---	0.00	29.948 
17:50	72.5	72.5	72.5	87	68.4	0	1	270	0.00	29.948 
17:55	73.0	73.0	73.0	87	68.9	0	0	---	0.00	29.948 
18:00	73.3	73.3	73.3	87	69.2	0	0	---	0.00	29.945 
18:05	73.7	73.7	73.7	87	69.6	0	1	270	0.00	29.945 
18:10	74.0	74.0	74.0	86	69.5	0	1	270	0.00	29.945 
18:15	74.2	74.2	74.2	84	69.0	0	1	270	0.00	29.945 
18:20	74.4	74.4	74.4	83	68.9	0	1	270	0.00	29.945 
18:25	74.4	74.4	74.4	82	68.5	0	1	270	0.00	29.945 
18:30	74.4	74.4	74.4	82	68.5	0	1	270	0.00	29.941 
18:35	74.6	74.6	74.6	82	68.7	0	1	270	0.00	29.941 
18:40	74.6	74.6	74.6	82	68.7	0	0	---	0.00	29.941 
18:45	74.6	74.6	74.6	83	69.1	0	0	---	0.00	29.938 
18:50	74.6	74.6	74.6	83	69.1	0	0	---	0.00	29.938 
18:55	74.9	74.9	74.9	82	69.0	0	1	270	0.00	29.938 
19:00	74.9	74.9	74.9	80	68.3	0	1	270	0.00	29.926 
19:05	74.9	74.9	74.9	78	67.6	0	1	270	0.00	29.926 
19:10	74.9	74.9	74.9	77	67.2	0	0	---	0.00	29.926 
19:15	74.9	74.9	74.9	77	67.2	0	0	---	0.00	29.933 
19:20	74.9	74.9	74.9	77	67.2	0	0	---	0.00	29.933 
19:25	74.7	74.7	74.7	77	67.0	0	0	---	0.00	29.933 
19:30	74.6	74.6	74.6	76	66.5	1	6	90	0.00	29.942 
19:35	73.9	73.9	73.9	77	66.2	2	6	112	0.00	29.942 
19:40	73.2	73.2	73.2	78	65.9	0	3	90	0.00	29.942 
19:45	72.7	72.7	72.7	80	66.2	0	1	90	0.00	29.940 
19:50	72.1	72.1	72.1	81	65.9	0	3	90	0.00	29.940 
19:55	71.6	71.6	71.6	83	66.2	0	1	90	0.00	29.940 
20:00	71.3	71.3	71.3	84	66.2	0	1	90	0.00	29.938 
20:05	70.9	70.9	70.9	84	65.8	0	0	---	0.00	29.938 
20:10	70.8	70.8	70.8	85	66.1	0	1	90	0.00	29.938 
20:15	70.4	70.4	70.4	85	65.7	0	0	---	0.00	29.939 
20:20	70.3	70.3	70.3	86	65.9	0	0	---	0.00	29.939 
20:25	70.1	70.1	70.1	86	65.7	0	1	90	0.00	29.939 
20:30	69.9	69.9	69.9	87	65.8	0	0	---	0.00	29.935 
20:35	69.8	69.8	69.8	87	65.7	0	0	---	0.00	29.935 
20:40	69.6	69.6	69.6	87	65.6	0	0	---	0.00	29.935 
20:45	69.4	69.4	69.4	87	65.4	0	0	---	0.00	29.934 
20:50	69.1	69.1	69.1	88	65.4	0	0	---	0.00	29.934 
20:55	68.9	68.9	68.9	88	65.2	0	0	---	0.00	29.934 
21:00	68.8	68.8	68.8	88	65.1	0	0	---	0.00	29.938 
21:05	68.6	68.6	68.6	88	64.9	0	0	---	0.00	29.938 
21:10	68.4	68.4	68.4	88	64.7	0	0	---	0.00	29.938 
21:15	68.3	68.3	68.3	89	64.9	0	0	---	0.00	29.941 
21:20	68.3	68.3	68.3	89	64.9	0	0	---	0.00	29.941 
21:25	68.1	68.1	68.1	89	64.7	0	0	---	0.00	29.941 
21:30	67.9	67.9	67.9	90	64.9	0	0	---	0.00	29.944 
21:35	67.8	67.8	67.8	90	64.8	0	0	---	0.00	29.944 
21:40	67.8	67.8	67.8	91	65.1	0	0	---	0.00	29.944 
21:45	67.6	67.6	67.6	91	64.9	0	0	---	0.00	29.948 
21:50	67.4	67.4	67.4	91	64.7	0	0	---	0.00	29.948 
21:55	67.4	67.4	67.4	91	64.7	0	0	---	0.00	29.948 
22:00	67.3	67.3	67.3	92	64.9	0	0	---	0.00	29.960 
22:05	67.3	67.3	67.3	92	64.9	0	0	---	0.00	29.960 
22:10	67.1	67.1	67.1	92	64.7	0	0	---	0.00	29.960 
22:15	67.1	67.1	67.1	92	64.7	0	0	---	0.00	29.965 
22:20	67.1	67.1	67.1	92	64.7	0	0	---	0.00	29.965 
22:25	67.1	67.1	67.1	92	64.7	0	0	---	0.00	29.965 
22:30	67.1	67.1	67.1	92	64.7	0	0	---	0.00	29.970 
22:35	67.3	67.3	67.3	92	64.9	0	0	---	0.00	29.970 
22:40	67.3	67.3	67.3	93	65.2	0	0	---	0.00	29.970 
22:45	67.4	67.4	67.4	93	65.3	0	1	90	0.00	29.970 
22:50	67.6	67.6	67.6	93	65.5	0	0	---	0.00	29.970 
22:55	67.8	67.8	67.8	93	65.7	0	0	---	0.00	29.970 
23:00	67.9	67.9	67.9	93	65.8	0	0	---	0.00	29.970 
23:05	68.1	68.1	68.1	93	66.0	0	0	---	0.00	29.970 
23:10	68.1	68.1	68.1	93	66.0	0	0	---	0.00	29.970 
23:15	68.1	68.1	68.1	93	66.0	0	0	---	0.00	29.963 
23:20	68.1	68.1	68.1	93	66.0	0	0	---	0.00	29.963 
23:25	68.1	68.1	68.1	93	66.0	0	0	---	0.00	29.963 
23:30	68.1	68.1	68.1	93	66.0	0	0	---	0.00	29.954 
23:35	68.1	68.1	68.1	93	66.0	0	0	---	0.00	29.954 
23:40	67.9	67.9	67.9	93	65.8	0	0	---	0.00	29.954 
23:45	67.9	67.9	67.9	93	65.8	0	0	---	0.00	29.955 
23:50	68.1	68.1	68.1	93	66.0	0	0	---	0.00	29.955 
23:55	68.1	68.1	68.1	93	66.0	0	0	---	0.00	29.955 

CoCoRaHS
IN-AL-39
A2 Web Hosting
Creative Commons License
GoDaddy
search engine by freefind advanced

loaded 2018-11-15 18:04:32 • last modified 2010-11-18 10:43:29
Privacy PolicyDisclaimer
• wx.awcolley.com is powered by PmWiki v.2002016 •
• all content (unless otherwise noted) © 2018 A W Colley